Time;durP1;ratioP1;P1;durP2;ratioP2;P2;SDS_P1;SDS_P2;PMS_P1;PMS_P2;Temp;Humidity;BMP_temperature;BMP_pressure;BME280_temperature;BME280_humidity;BME280_pressure;Samples;Min_cycle;Max_cycle;Signal;HPM_P1;HPM_P2
2023/01/11 00:00:55;;;;;;;7.35;1.65;;;;;;;11.32;100.00;100763.16;5225874;28;20075;-75
2023/01/11 00:03:26;;;;;;;6.20;1.50;;;;;;;11.33;100.00;100754.09;5213385;28;20025;-75
2023/01/11 00:05:58;;;;;;;5.15;1.38;;;;;;;11.34;100.00;100756.59;5220516;28;20025;-76
2023/01/11 00:08:28;;;;;;;3.75;1.23;;;;;;;11.39;100.00;100761.44;5220509;28;20025;-75
2023/01/11 00:11:01;;;;;;;9.95;1.90;;;;;;;11.38;100.00;100755.25;5226778;28;20392;-76
2023/01/11 00:13:32;;;;;;;5.07;1.60;;;;;;;11.35;100.00;100752.09;5210804;28;20116;-75
2023/01/11 00:16:07;;;;;;;5.78;2.10;;;;;;;11.28;100.00;100745.72;5210800;28;20156;-77
2023/01/11 00:18:39;;;;;;;4.43;1.80;;;;;;;11.17;100.00;100760.34;5225396;28;20027;-77
2023/01/11 00:21:10;;;;;;;4.22;1.67;;;;;;;11.08;100.00;100747.97;5214147;28;20100;-77
2023/01/11 00:23:40;;;;;;;10.02;1.90;;;;;;;11.01;100.00;100761.25;5207229;28;20048;-77
2023/01/11 00:26:12;;;;;;;6.53;2.00;;;;;;;10.97;100.00;100765.28;5220345;28;20057;-77
2023/01/11 00:28:42;;;;;;;8.98;2.55;;;;;;;10.98;100.00;100764.25;5205742;28;20371;-76
2023/01/11 00:31:13;;;;;;;9.90;3.10;;;;;;;10.97;100.00;100762.59;5221761;28;20044;-76
2023/01/11 00:33:44;;;;;;;11.95;2.47;;;;;;;11.01;100.00;100760.41;5217180;28;20037;-77
2023/01/11 00:36:14;;;;;;;4.38;1.85;;;;;;;10.97;100.00;100772.50;5206419;28;20021;-77
2023/01/11 00:38:52;;;;;;;17.27;3.47;;;;;;;10.92;100.00;100756.91;5206925;28;20022;-77
2023/01/11 00:49:50;;;;;;;13.32;2.65;;;;;;;10.79;100.00;100748.50;5218265;28;20021;-78
2023/01/11 00:52:21;;;;;;;9.98;2.95;;;;;;;10.79;100.00;100746.69;5204624;28;20095;-77
2023/01/11 00:54:51;;;;;;;12.38;2.65;;;;;;;10.78;100.00;100747.69;5208869;28;20018;-80
2023/01/11 00:57:22;;;;;;;10.60;3.05;;;;;;;10.79;100.00;100745.84;5206538;28;20083;-78
2023/01/11 00:59:53;;;;;;;8.90;2.67;;;;;;;10.79;100.00;100745.84;5218931;28;20512;-79
2023/01/11 01:02:23;;;;;;;7.28;2.80;;;;;;;10.79;100.00;100740.47;5229333;28;20443;-79
2023/01/11 01:04:54;;;;;;;11.90;3.13;;;;;;;10.77;100.00;100721.03;5229660;28;20025;-80
2023/01/11 01:07:24;;;;;;;8.63;2.60;;;;;;;10.78;100.00;100723.53;5231761;28;20380;-79
2023/01/11 01:09:55;;;;;;;7.07;3.08;;;;;;;10.82;100.00;100732.09;5218433;28;20032;-79
2023/01/11 01:15:25;;;;;;;7.95;2.40;;;;;;;10.86;100.00;100736.09;5201858;28;20041;-78
2023/01/11 01:17:56;;;;;;;7.55;2.70;;;;;;;10.90;100.00;100726.72;5220968;28;20025;-77
2023/01/11 01:20:26;;;;;;;4.50;2.38;;;;;;;10.94;100.00;100727.19;5208199;28;20021;-78
2023/01/11 01:22:57;;;;;;;8.98;3.03;;;;;;;10.94;100.00;100732.56;5207910;28;20375;-79
2023/01/11 01:25:27;;;;;;;7.10;2.40;;;;;;;10.92;100.00;100727.38;5216618;28;20075;-78
2023/01/11 01:27:58;;;;;;;9.85;2.47;;;;;;;10.92;100.00;100731.91;5227768;28;20474;-77
2023/01/11 01:30:28;;;;;;;7.63;2.03;;;;;;;10.94;100.00;100725.34;5225407;28;20029;-76
2023/01/11 01:32:59;;;;;;;6.88;2.28;;;;;;;10.93;100.00;100729.03;5210143;28;20035;-77
2023/01/11 01:35:29;;;;;;;6.95;2.45;;;;;;;10.95;100.00;100729.72;5224086;28;20396;-78
2023/01/11 01:38:00;;;;;;;3.33;1.92;;;;;;;10.95;100.00;100731.56;5211398;28;20389;-78
2023/01/11 01:40:30;;;;;;;5.38;1.90;;;;;;;10.99;100.00;100731.03;5216886;28;20035;-78
2023/01/11 01:43:01;;;;;;;4.93;1.88;;;;;;;10.97;100.00;100741.09;5228665;28;20032;-79
2023/01/11 01:45:31;;;;;;;4.15;1.95;;;;;;;11.00;100.00;100737.25;5229762;28;20059;-78
2023/01/11 01:48:04;;;;;;;3.45;1.95;;;;;;;11.03;100.00;100737.72;5222564;28;20474;-79
2023/01/11 01:50:42;;;;;;;6.88;2.55;;;;;;;11.02;100.00;100738.75;5221964;28;20040;-78
2023/01/11 01:53:43;;;;;;;4.55;1.98;;;;;;;11.03;100.00;100755.69;5209564;28;20047;-77
2023/01/11 01:56:22;;;;;;;7.35;2.05;;;;;;;11.02;100.00;100743.28;5212885;28;20048;-79
2023/01/11 01:58:59;;;;;;;6.18;1.95;;;;;;;11.07;100.00;100748.97;5214552;28;20025;-78
2023/01/11 02:02:02;;;;;;;3.58;2.05;;;;;;;11.09;100.00;100738.88;5219187;28;20024;-79
2023/01/11 02:04:41;;;;;;;5.47;2.00;;;;;;;11.12;100.00;100734.03;5228427;28;20538;-79
2023/01/11 02:07:14;;;;;;;3.53;2.03;;;;;;;11.12;100.00;100730.50;5228967;28;20028;-79
2023/01/11 02:09:44;;;;;;;5.97;1.88;;;;;;;11.13;100.00;100733.00;5228458;28;20032;-79
2023/01/11 02:12:15;;;;;;;8.05;2.15;;;;;;;11.17;100.00;100722.75;5225346;28;20546;-78
2023/01/11 02:15:09;;;;;;;4.72;1.55;;;;;;;11.22;100.00;100727.63;5226072;28;20025;-77
2023/01/11 02:17:58;;;;;;;2.08;1.52;;;;;;;11.24;100.00;100728.28;5213992;28;20082;-77
2023/01/11 02:20:56;;;;;;;3.53;1.70;;;;;;;11.25;100.00;100728.13;5204982;28;20036;-77
2023/01/11 02:23:27;;;;;;;3.67;1.77;;;;;;;11.23;100.00;100727.44;5206459;28;20037;-77
2023/01/11 02:26:06;;;;;;;4.15;1.88;;;;;;;11.22;100.00;100720.41;5216647;28;20086;-77
2023/01/11 02:29:01;;;;;;;4.07;1.88;;;;;;;11.21;100.00;100728.63;5215902;28;20021;-77
2023/01/11 02:31:44;;;;;;;3.55;1.80;;;;;;;11.18;100.00;100728.97;5229225;28;20489;-78
2023/01/11 02:34:31;;;;;;;7.22;2.10;;;;;;;11.15;100.00;100709.53;5229167;28;20025;-78
2023/01/11 02:37:22;;;;;;;7.85;1.95;;;;;;;11.15;100.00;100704.16;5220148;28;20034;-78
2023/01/11 02:40:06;;;;;;;6.15;2.15;;;;;;;11.14;100.00;100710.53;5226414;28;20016;-78
2023/01/11 02:45:57;;;;;;;6.40;2.15;;;;;;;11.15;100.00;100720.25;5206886;28;20028;-79
2023/01/11 02:48:46;;;;;;;3.85;2.10;;;;;;;11.14;100.00;100701.63;5207009;28;20100;-77
2023/01/11 02:51:27;;;;;;;4.93;2.10;;;;;;;11.10;100.00;100703.00;5209249;28;20029;-78
2023/01/11 02:54:06;;;;;;;7.63;2.20;;;;;;;11.12;100.00;100692.91;5225305;28;20036;-78
2023/01/11 02:56:40;;;;;;;3.70;1.92;;;;;;;11.14;100.00;100697.13;5217801;28;20401;-78
2023/01/11 02:59:16;;;;;;;3.90;2.00;;;;;;;11.15;100.00;100704.16;5207679;28;20025;-78
2023/01/11 03:01:50;;;;;;;5.10;1.98;;;;;;;11.14;100.00;100693.56;5222627;28;20021;-78
2023/01/11 03:04:29;;;;;;;6.15;2.83;;;;;;;11.16;100.00;100694.25;5210063;28;20033;-77
2023/01/11 03:07:13;;;;;;;3.40;2.08;;;;;;;11.17;100.00;100706.66;5224370;28;20021;-79
2023/01/11 03:10:16;;;;;;;5.30;1.90;;;;;;;11.20;100.00;100710.84;5208839;28;20480;-79
2023/01/11 03:13:00;;;;;;;7.45;1.50;;;;;;;11.18;100.00;100702.13;5219031;28;20032;-79
2023/01/11 03:15:52;;;;;;;4.55;2.00;;;;;;;11.19;100.00;100703.78;5218213;28;20065;-80
2023/01/11 03:18:32;;;;;;;4.75;2.00;;;;;;;11.17;100.00;100706.66;5223900;28;20029;-78
2023/01/11 03:21:16;;;;;;;7.82;2.13;;;;;;;11.22;100.00;100714.19;5223119;28;20036;-78
2023/01/11 03:24:06;;;;;;;2.88;1.67;;;;;;;11.18;100.00;100705.63;5220092;28;20024;-79
2023/01/11 03:26:59;;;;;;;4.63;1.60;;;;;;;11.20;100.00;100708.16;5229101;28;20041;-78
2023/01/11 03:29:33;;;;;;;3.65;1.83;;;;;;;11.20;100.00;100705.50;5228712;28;20033;-79
2023/01/11 03:32:11;;;;;;;4.03;1.50;;;;;;;11.18;100.00;100702.13;5218867;28;20025;-78
2023/01/11 03:35:11;;;;;;;3.47;1.95;;;;;;;11.18;100.00;100699.44;5214044;28;20026;-78
2023/01/11 03:38:00;;;;;;;6.55;1.80;;;;;;;11.18;100.00;100692.22;5207481;28;20033;-78
2023/01/11 03:40:39;;;;;;;3.70;1.50;;;;;;;11.19;100.00;100717.22;5216033;28;20222;-78
2023/01/11 03:43:13;;;;;;;5.20;2.33;;;;;;;11.20;100.00;100709.00;5206690;28;20033;-77
2023/01/11 03:45:53;;;;;;;2.53;1.70;;;;;;;11.22;100.00;100723.09;5223773;28;20056;-78
2023/01/11 03:48:38;;;;;;;1.95;1.30;;;;;;;11.23;100.00;100719.38;5218670;28;20021;-79
2023/01/11 03:51:13;;;;;;;2.10;1.20;;;;;;;11.26;100.00;100720.91;5205567;28;20425;-79
2023/01/11 03:53:46;;;;;;;2.23;1.50;;;;;;;11.28;100.00;100719.69;5219317;28;20052;-78
2023/01/11 03:56:22;;;;;;;3.58;1.13;;;;;;;11.25;100.00;100724.59;5207419;28;20478;-78
2023/01/11 03:58:53;;;;;;;3.70;1.42;;;;;;;11.26;100.00;100723.59;5219927;28;20051;-79
2023/01/11 04:01:25;;;;;;;2.88;1.70;;;;;;;11.25;100.00;100724.59;5205754;28;20025;-78
2023/01/11 04:03:55;;;;;;;5.38;1.42;;;;;;;11.28;100.00;100729.59;5206721;28;20052;-78
2023/01/11 04:06:25;;;;;;;3.78;1.55;;;;;;;11.27;100.00;100730.63;5217181;28;20028;-79
2023/01/11 04:08:56;;;;;;;3.10;1.35;;;;;;;11.28;100.00;100724.22;5223597;28;20362;-78
2023/01/11 04:11:27;;;;;;;2.65;1.17;;;;;;;11.31;100.00;100731.97;5220180;28;20095;-78
2023/01/11 04:13:57;;;;;;;4.50;1.33;;;;;;;11.33;100.00;100735.28;5221024;28;20026;-79
2023/01/11 04:16:28;;;;;;;2.63;1.20;;;;;;;11.34;100.00;100731.59;5214659;28;20021;-78
2023/01/11 04:18:58;;;;;;;2.97;1.10;;;;;;;11.37;100.00;100728.56;5217915;28;20032;-79
2023/01/11 04:21:29;;;;;;;4.28;1.42;;;;;;;11.35;100.00;100742.19;5202639;28;20056;-79
2023/01/11 04:23:59;;;;;;;1.58;1.08;;;;;;;11.38;100.00;100751.72;5219611;28;20086;-77
2023/01/11 04:26:30;;;;;;;2.78;1.05;;;;;;;11.38;100.00;100739.13;5210006;28;20021;-77
2023/01/11 04:29:00;;;;;;;2.63;1.17;;;;;;;11.36;100.00;100754.59;5227667;28;20033;-77
2023/01/11 04:31:31;;;;;;;3.80;1.00;;;;;;;11.37;100.00;100740.16;5227072;28;20025;-78
2023/01/11 04:34:02;;;;;;;2.65;1.17;;;;;;;11.36;100.00;100743.84;5216199;28;20025;-78
2023/01/11 04:36:32;;;;;;;3.83;1.00;;;;;;;11.36;100.00;100753.75;5220908;28;20090;-78
2023/01/11 04:39:03;;;;;;;2.05;0.93;;;;;;;11.37;100.00;100764.31;5220561;28;20461;-78
2023/01/11 04:44:23;;;;;;;5.97;1.80;;;;;;;11.34;100.00;100750.38;5210957;28;20096;-78
2023/01/11 04:46:54;;;;;;;1.73;1.20;;;;;;;11.31;100.00;100745.38;5218094;28;20762;-78
2023/01/11 04:49:25;;;;;;;3.00;1.70;;;;;;;11.33;100.00;100759.47;5221169;28;20029;-78
2023/01/11 04:51:56;;;;;;;2.95;1.30;;;;;;;11.26;100.00;100756.66;5206025;28;20385;-78
2023/01/11 04:54:26;;;;;;;2.95;1.20;;;;;;;11.30;100.00;100757.16;5213439;28;20033;-77
2023/01/11 04:56:57;;;;;;;3.70;2.45;;;;;;;11.30;100.00;100759.81;5215685;28;20512;-78
2023/01/11 04:59:27;;;;;;;3.72;1.75;;;;;;;11.31;100.00;100758.81;5213361;28;20059;-78
2023/01/11 05:01:58;;;;;;;6.40;1.77;;;;;;;11.31;100.00;100761.50;5213913;28;20025;-78
2023/01/11 05:04:28;;;;;;;2.67;1.20;;;;;;;11.27;100.00;100776.28;5207852;28;20371;-78
2023/01/11 05:06:59;;;;;;;2.67;1.65;;;;;;;11.26;100.00;100777.28;5222338;28;20021;-78
2023/01/11 05:09:29;;;;;;;3.47;1.48;;;;;;;11.28;100.00;100797.56;5227562;28;20028;-78
2023/01/11 05:12:00;;;;;;;2.60;1.23;;;;;;;11.29;100.00;100787.66;5227339;28;20478;-78
2023/01/11 05:14:30;;;;;;;4.20;1.38;;;;;;;11.24;100.00;100792.72;5216352;28;20025;-78
2023/01/11 05:17:01;;;;;;;4.45;1.45;;;;;;;11.24;100.00;100787.34;5206252;28;20044;-77
2023/01/11 05:19:31;;;;;;;5.10;1.70;;;;;;;11.20;100.00;100789.56;5208080;28;20029;-77
2023/01/11 05:22:02;;;;;;;4.53;1.65;;;;;;;11.23;100.00;100796.41;5225645;28;20036;-77
2023/01/11 05:24:32;;;;;;;4.22;1.52;;;;;;;11.21;100.00;100798.44;5228687;28;20041;-77
2023/01/11 05:27:03;;;;;;;5.97;1.73;;;;;;;11.11;100.00;100794.09;5208435;28;20029;-78
2023/01/11 05:29:34;;;;;;;7.60;2.38;;;;;;;11.12;100.00;100798.47;5207572;28;20057;-77
2023/01/11 05:32:04;;;;;;;4.95;1.95;;;;;;;11.07;100.00;100792.75;5217293;28;20075;-77
2023/01/11 05:34:35;;;;;;;13.15;3.08;;;;;;;11.04;100.00;100793.09;5218789;28;20035;-78
2023/01/11 05:37:05;;;;;;;8.63;2.13;;;;;;;11.02;100.00;100795.13;5229736;28;20033;-78
2023/01/11 05:39:36;;;;;;;7.88;2.42;;;;;;;11.00;100.00;100815.94;5227265;28;20676;-77
2023/01/11 05:42:06;;;;;;;10.38;2.92;;;;;;;11.01;100.00;100819.47;5228891;28;20521;-78
2023/01/11 05:47:26;;;;;;;7.45;2.33;;;;;;;10.96;100.00;100841.44;5208999;28;20151;-77
2023/01/11 05:49:56;;;;;;;8.48;3.15;;;;;;;10.94;100.00;100839.91;5208712;28;20097;-77
2023/01/11 05:52:27;;;;;;;13.30;3.38;;;;;;;10.94;100.00;100837.22;5222844;28;20043;-77
2023/01/11 05:54:58;;;;;;;11.25;2.53;;;;;;;10.91;100.00;100832.22;5228466;28;20038;-77
2023/01/11 05:57:28;;;;;;;13.02;2.97;;;;;;;10.87;100.00;100824.50;5210431;28;20030;-77
2023/01/11 05:59:59;;;;;;;9.63;2.85;;;;;;;10.89;100.00;100829.69;5208572;28;20026;-78
2023/01/11 06:02:29;;;;;;;9.25;2.88;;;;;;;10.97;100.00;100818.94;5213066;28;20108;-79
2023/01/11 06:05:00;;;;;;;16.80;3.38;;;;;;;11.01;100.00;100817.63;5227581;28;20032;-77
2023/01/11 06:07:30;;;;;;;8.45;2.38;;;;;;;10.96;100.00;100832.56;5207370;28;20386;-78
2023/01/11 06:10:01;;;;;;;22.40;3.53;;;;;;;10.96;100.00;100838.75;5221567;28;20039;-77
2023/01/11 06:12:31;;;;;;;8.60;3.20;;;;;;;10.95;100.00;100845.13;5227605;28;20063;-77
2023/01/11 06:15:02;;;;;;;17.23;3.00;;;;;;;11.01;100.00;100844.47;5228000;28;20388;-78
2023/01/11 06:17:33;;;;;;;16.17;2.97;;;;;;;11.01;100.00;100841.78;5219095;28;20116;-77
2023/01/11 06:20:04;;;;;;;17.40;3.10;;;;;;;10.99;100.00;100854.50;5206927;28;20108;-77
2023/01/11 06:22:34;;;;;;;16.88;3.10;;;;;;;10.92;100.00;100858.88;5208183;28;20064;-77
2023/01/11 06:25:05;;;;;;;13.38;3.33;;;;;;;10.96;100.00;100860.22;5208276;28;20490;-78
2023/01/11 06:27:36;;;;;;;21.75;3.83;;;;;;;10.89;100.00;100857.38;5217956;28;20021;-77
2023/01/11 06:30:07;;;;;;;18.52;3.92;;;;;;;10.91;100.00;100857.22;5226238;28;20076;-76
2023/01/11 06:32:37;;;;;;;23.00;4.70;;;;;;;10.86;100.00;100862.25;5227581;28;20021;-77
2023/01/11 06:35:08;;;;;;;19.75;4.32;;;;;;;10.81;100.00;100868.13;5209145;28;20017;-78
2023/01/11 06:37:38;;;;;;;24.80;4.70;;;;;;;10.78;100.00;100868.44;5219629;28;20029;-76
2023/01/11 06:40:09;;;;;;;27.15;6.38;;;;;;;10.80;100.00;100873.66;5218658;28;20073;-77
2023/01/11 06:42:40;;;;;;;28.85;3.92;;;;;;;10.75;100.00;100876.00;5230932;28;20428;-77
2023/01/11 06:45:10;;;;;;;29.65;7.57;;;;;;;10.72;100.00;100892.44;5225828;28;20033;-77
2023/01/11 06:47:41;;;;;;;23.13;6.00;;;;;;;10.68;100.00;100897.28;5225348;28;20078;-77
2023/01/11 06:50:11;;;;;;;25.75;6.43;;;;;;;10.69;100.00;100896.25;5226035;28;20029;-77
2023/01/11 06:52:42;;;;;;;33.28;9.65;;;;;;;10.66;100.00;100912.72;5225775;28;20060;-77
2023/01/11 06:55:12;;;;;;;33.80;9.70;;;;;;;10.66;100.00;100918.06;5226665;28;20021;-77
2023/01/11 06:57:43;;;;;;;27.92;8.95;;;;;;;10.62;100.00;100916.72;5226843;28;20029;-76
2023/01/11 07:00:15;;;;;;;31.00;7.65;;;;;;;10.58;100.00;100920.72;5212694;28;20086;-77
2023/01/11 07:02:46;;;;;;;28.65;5.53;;;;;;;10.53;100.00;100907.81;5205739;28;20044;-77
2023/01/11 07:05:17;;;;;;;25.85;5.40;;;;;;;10.54;100.00;100916.69;5207408;28;20056;-78
2023/01/11 07:07:47;;;;;;;22.25;5.03;;;;;;;10.57;100.00;100925.25;5215923;28;20484;-78
2023/01/11 07:10:18;;;;;;;25.67;5.22;;;;;;;10.55;100.00;100923.75;5208824;28;20096;-78
2023/01/11 07:12:48;;;;;;;19.40;4.72;;;;;;;10.52;100.00;100924.91;5224590;28;20599;-77
2023/01/11 07:15:20;;;;;;;17.95;4.63;;;;;;;10.49;100.00;100933.31;5225840;28;20104;-77
2023/01/11 07:17:55;;;;;;;23.33;4.95;;;;;;;10.49;100.00;100940.47;5214002;28;20025;-77
2023/01/11 07:20:25;;;;;;;27.58;4.60;;;;;;;10.41;100.00;100937.81;5205228;28;20024;-77
2023/01/11 07:22:58;;;;;;;31.05;4.50;;;;;;;10.46;100.00;100954.25;5205297;28;20025;-77
2023/01/11 07:25:29;;;;;;;21.60;4.03;;;;;;;10.42;100.00;100960.94;5213519;28;20023;-78
2023/01/11 07:28:02;;;;;;;20.40;4.03;;;;;;;10.34;100.00;100962.59;5225331;28;20457;-78
2023/01/11 07:30:36;;;;;;;34.95;5.43;;;;;;;10.31;100.00;100962.06;5215361;28;20025;-77
2023/01/11 07:33:09;;;;;;;17.30;3.28;;;;;;;10.31;100.00;100965.59;5203745;28;20029;-77
2023/01/11 07:35:39;;;;;;;19.52;3.75;;;;;;;10.32;100.00;100977.16;5214401;28;20469;-77
2023/01/11 07:38:10;;;;;;;33.00;5.97;;;;;;;10.29;100.00;100977.47;5205011;28;20037;-77
2023/01/11 07:40:41;;;;;;;19.92;3.03;;;;;;;10.23;100.00;100980.75;5224834;28;20032;-78
2023/01/11 07:43:17;;;;;;;26.38;4.65;;;;;;;10.18;100.00;100989.28;5201696;28;20029;-77
2023/01/11 07:45:50;;;;;;;26.17;3.78;;;;;;;10.16;100.00;100987.78;5209615;28;20017;-77
2023/01/11 07:48:24;;;;;;;18.02;3.35;;;;;;;10.09;100.00;100993.78;5223242;28;20021;-77
2023/01/11 07:50:56;;;;;;;25.27;3.92;;;;;;;10.13;100.00;101010.38;5221832;28;20120;-77
2023/01/11 07:53:26;;;;;;;24.67;5.07;;;;;;;10.06;100.00;101028.94;5223199;28;20688;-77
2023/01/11 07:55:57;;;;;;;25.10;3.05;;;;;;;10.01;100.00;101039.28;5204398;28;20032;-77
2023/01/11 07:58:28;;;;;;;17.23;3.03;;;;;;;9.98;100.00;101036.06;5218171;28;20032;-77
2023/01/11 08:00:59;;;;;;;21.70;2.95;;;;;;;9.96;100.00;101049.63;5205877;28;20482;-77
2023/01/11 08:03:29;;;;;;;30.08;3.55;;;;;;;9.83;100.00;101050.03;5204847;28;20402;-77
2023/01/11 08:06:00;;;;;;;26.13;4.57;;;;;;;9.80;100.00;101053.06;5206260;28;20029;-78
2023/01/11 08:08:30;;;;;;;19.75;3.17;;;;;;;9.77;100.00;101068.59;5204711;28;20018;-77
2023/01/11 08:16:39;;;;;;;34.35;7.53;;;;;;;9.54;100.00;101071.75;5210152;28;20496;-76
2023/01/11 08:19:09;;;;;;;24.90;4.10;;;;;;;9.49;100.00;101082.09;5215721;28;20116;-77
2023/01/11 08:21:43;;;;;;;32.13;5.13;;;;;;;9.40;100.00;101091.03;5225540;28;20401;-76
2023/01/11 08:24:13;;;;;;;21.42;3.17;;;;;;;9.30;100.00;101095.63;5226355;28;20040;-77
2023/01/11 08:26:44;;;;;;;28.88;3.85;;;;;;;9.24;100.00;101088.22;5220922;28;20018;-76
2023/01/11 08:29:14;;;;;;;20.38;3.35;;;;;;;9.13;100.00;101091.09;5204135;28;20065;-77
2023/01/11 08:31:47;;;;;;;27.20;3.40;;;;;;;9.06;100.00;101105.06;5205030;28;20022;-76
2023/01/11 08:34:17;;;;;;;30.65;4.93;;;;;;;9.11;100.00;101119.84;5211158;28;20496;-77
2023/01/11 08:36:48;;;;;;;23.98;2.97;;;;;;;9.08;100.00;101120.97;5224625;28;20025;-76
2023/01/11 08:39:18;;;;;;;29.45;3.45;;;;;;;9.02;100.00;101129.59;5209982;28;20029;-77
2023/01/11 08:41:49;;;;;;;24.80;4.57;;;;;;;9.00;100.00;101127.09;5225025;28;20060;-77
2023/01/11 08:44:19;;;;;;;29.25;4.78;;;;;;;8.97;100.00;101134.56;5210069;28;20049;-77
2023/01/11 08:46:51;;;;;;;18.70;3.08;;;;;;;8.92;100.00;101132.34;5214221;28;20045;-77
2023/01/11 08:49:21;;;;;;;21.98;3.55;;;;;;;8.90;100.00;101133.47;5224020;28;20120;-77
2023/01/11 08:51:52;;;;;;;21.88;3.60;;;;;;;8.88;100.00;101128.25;5212969;28;20392;-77
2023/01/11 08:54:23;;;;;;;22.65;4.38;;;;;;;8.87;100.00;101120.38;5205586;28;20448;-76
2023/01/11 08:56:54;;;;;;;22.50;3.50;;;;;;;8.88;100.00;101120.22;5205260;28;20037;-76
2023/01/11 08:59:25;;;;;;;22.50;3.35;;;;;;;8.93;100.00;101139.34;5224816;28;20586;-77
2023/01/11 09:01:55;;;;;;;19.15;3.42;;;;;;;8.96;100.00;101138.25;5224541;28;20021;-77
2023/01/11 09:04:26;;;;;;;26.25;3.78;;;;;;;8.98;100.00;101137.09;5204434;28;20071;-77
2023/01/11 09:06:56;;;;;;;21.63;2.72;;;;;;;8.96;100.00;101135.56;5220036;28;20107;-76
2023/01/11 09:09:27;;;;;;;29.08;3.63;;;;;;;8.94;100.00;101138.41;5215758;28;20605;-77
2023/01/11 09:12:01;;;;;;;25.33;3.45;;;;;;;8.87;100.00;101148.00;5207335;28;20080;-76
2023/01/11 09:14:33;;;;;;;20.63;3.53;;;;;;;8.90;100.00;101146.88;5223948;28;20044;-76
2023/01/11 09:17:03;;;;;;;23.10;3.40;;;;;;;8.90;100.00;101157.56;5219098;28;20071;-76
2023/01/11 09:19:34;;;;;;;28.60;3.40;;;;;;;9.03;100.00;101161.56;5216535;28;20469;-77
2023/01/11 09:22:05;;;;;;;24.08;4.32;;;;;;;9.10;100.00;101163.66;5224103;28;20021;-77
2023/01/11 09:24:36;;;;;;;20.48;3.92;;;;;;;9.08;100.00;101172.66;5211791;28;20057;-77
2023/01/11 09:27:10;;;;;;;22.42;3.53;;;;;;;9.09;100.00;101176.22;5212539;28;20553;-77
2023/01/11 09:29:41;;;;;;;24.73;2.97;;;;;;;9.17;100.00;101181.66;5208468;28;20026;-77
2023/01/11 09:32:11;;;;;;;24.15;3.10;;;;;;;9.58;100.00;101176.75;5203077;28;20485;-77
2023/01/11 09:34:44;;;;;;;23.38;3.95;;;;;;;10.18;100.00;101182.31;5210371;28;20420;-77
2023/01/11 09:37:15;;;;;;;27.58;4.93;;;;;;;10.87;100.00;101186.00;5225395;28;20033;-77
2023/01/11 09:39:46;;;;;;;37.97;5.03;;;;;;;11.40;100.00;101184.88;5209207;28;20186;-76
2023/01/11 09:42:30;;;;;;;27.48;5.53;;;;;;;11.63;100.00;101190.47;5212421;28;20026;-77
2023/01/11 09:45:29;;;;;;;35.92;5.30;;;;;;;11.98;100.00;101200.13;5192233;28;20068;-78
2023/01/11 09:48:03;;;;;;;42.50;9.95;;;;;;;12.18;100.00;101201.47;5209154;28;20052;-77
2023/01/11 09:50:38;;;;;;;40.67;9.18;;;;;;;12.41;100.00;101204.34;5223207;28;20037;-77
2023/01/11 09:53:27;;;;;;;;;;;;;;;12.51;100.00;101204.16;5226053;28;20028;-77
2023/01/11 09:56:01;;;;;;;30.45;8.93;;;;;;;12.40;100.00;101208.03;5220425;28;19909;-77
2023/01/11 09:58:53;;;;;;;22.70;5.82;;;;;;;12.69;100.00;101220.09;5216565;28;20053;-77
2023/01/11 10:01:25;;;;;;;15.77;3.97;;;;;;;12.47;100.00;101210.88;5224764;28;20444;-77
2023/01/11 10:04:31;;;;;;;17.73;3.78;;;;;;;12.55;100.00;101218.09;5224259;28;20029;-78
2023/01/11 10:07:33;;;;;;;27.00;4.20;;;;;;;12.28;100.00;101222.84;5222213;28;20080;-78
2023/01/11 10:10:22;;;;;;;24.73;3.97;;;;;;;12.16;100.00;101216.97;5217578;28;20424;-78
2023/01/11 10:13:09;;;;;;;28.95;4.13;;;;;;;11.95;100.00;101213.91;5224962;28;20033;-77
2023/01/11 10:15:39;;;;;;;29.05;3.42;;;;;;;11.61;100.00;101222.06;5224213;28;20071;-78
2023/01/11 10:18:39;;;;;;;29.45;4.78;;;;;;;11.34;100.00;101223.13;5225340;28;20033;-77
2023/01/11 10:21:27;;;;;;;30.73;3.63;;;;;;;11.17;100.00;101222.22;5210215;28;20029;-78
2023/01/11 10:24:03;;;;;;;23.10;3.38;;;;;;;11.19;100.00;101219.34;5211608;28;20064;-77
2023/01/11 10:26:38;;;;;;;26.17;3.95;;;;;;;11.19;100.00;101222.03;5225598;28;20060;-77
2023/01/11 10:32:52;;;;;;;20.50;3.28;;;;;;;11.02;100.00;101218.44;5203745;28;20049;-78
2023/01/11 10:36:29;;;;;;;19.17;2.85;;;;;;;11.05;100.00;101221.66;5225000;28;20033;-78
2023/01/11 10:41:53;;;;;;;22.10;3.10;;;;;;;11.08;100.00;101226.69;5224010;28;19908;-77
2023/01/11 10:44:36;;;;;;;29.60;3.63;;;;;;;11.23;100.00;101226.09;5204798;28;20037;-78
2023/01/11 10:47:16;;;;;;;26.33;3.58;;;;;;;11.12;100.00;101224.53;5216953;28;20017;-77
2023/01/11 10:49:55;;;;;;;23.75;4.10;;;;;;;11.15;100.00;101237.66;5211339;28;20043;-77
2023/01/11 10:52:29;;;;;;;30.20;3.20;;;;;;;11.14;100.00;101234.13;5224011;28;20029;-78
2023/01/11 10:55:27;;;;;;;25.48;4.00;;;;;;;11.22;100.00;101225.25;5224026;28;20097;-77
2023/01/11 10:58:10;;;;;;;26.65;3.42;;;;;;;11.33;100.00;101234.88;5223288;28;20420;-78
2023/01/11 11:01:11;;;;;;;26.75;4.50;;;;;;;11.35;100.00;101230.19;5209793;28;20020;-78
2023/01/11 11:03:57;;;;;;;25.08;4.68;;;;;;;11.39;100.00;101218.94;5223401;28;20021;-78
2023/01/11 11:06:42;;;;;;;29.75;4.25;;;;;;;11.42;100.00;101217.78;5224154;28;20499;-77
2023/01/11 11:09:30;;;;;;;30.15;3.95;;;;;;;11.37;100.00;101220.97;5209720;28;20039;-77
2023/01/11 11:12:10;;;;;;;22.30;3.45;;;;;;;11.38;100.00;101222.63;5218284;28;20033;-78
2023/01/11 11:14:45;;;;;;;20.83;3.97;;;;;;;11.37;100.00;101220.97;5205898;28;20031;-77
2023/01/11 11:17:23;;;;;;;20.13;3.67;;;;;;;11.29;100.00;101226.28;5203220;28;20022;-78
2023/01/11 11:19:53;;;;;;;21.35;3.60;;;;;;;11.51;100.00;101226.72;5215907;28;20033;-78
2023/01/11 11:22:24;;;;;;;21.23;3.60;;;;;;;11.49;100.00;101221.50;5212052;28;20048;-78
2023/01/11 11:25:01;;;;;;;30.98;4.05;;;;;;;11.44;100.00;101220.31;5223906;28;20033;-77
2023/01/11 11:27:46;;;;;;;24.42;3.80;;;;;;;11.39;100.00;101223.47;5224339;28;20017;-78
2023/01/11 11:30:45;;;;;;;23.45;3.90;;;;;;;11.50;100.00;101227.72;5215648;28;20035;-78
2023/01/11 11:33:23;;;;;;;29.65;4.85;;;;;;;11.57;100.00;101229.59;5206868;28;20037;-77
2023/01/11 11:35:55;;;;;;;24.13;4.30;;;;;;;11.62;100.00;101221.88;5221146;28;20039;-77
2023/01/11 11:38:31;;;;;;;25.45;3.40;;;;;;;11.70;100.00;101226.44;5207279;28;20498;-77
2023/01/11 11:41:10;;;;;;;35.72;4.13;;;;;;;11.77;100.00;101232.00;5218568;28;20068;-77
2023/01/11 11:43:43;;;;;;;25.58;4.80;;;;;;;11.58;100.00;101235.81;5208512;28;20029;-77
2023/01/11 11:46:13;;;;;;;23.65;4.80;;;;;;;11.50;100.00;101230.41;5208547;28;20021;-77
2023/01/11 11:49:11;;;;;;;21.38;4.50;;;;;;;11.40;100.00;101241.28;5220258;28;20032;-77
2023/01/11 11:51:44;;;;;;;26.85;4.75;;;;;;;11.34;100.00;101249.97;5228805;28;20025;-78
2023/01/11 11:54:27;;;;;;;29.42;4.28;;;;;;;11.40;100.00;101255.56;5223704;28;20022;-78
2023/01/11 11:57:11;;;;;;;18.13;3.50;;;;;;;11.48;100.00;101268.19;5208968;28;20036;-77
2023/01/11 11:59:49;;;;;;;15.10;3.58;;;;;;;11.47;100.00;101262.97;5217926;28;20378;-77
2023/01/11 12:02:25;;;;;;;26.63;4.45;;;;;;;11.36;100.00;101259.56;5227591;28;20029;-77
2023/01/11 12:04:58;;;;;;;26.75;5.53;;;;;;;11.34;100.00;101250.81;5229648;28;20055;-77
2023/01/11 12:07:41;;;;;;;26.20;3.75;;;;;;;11.33;100.00;101251.81;5228761;28;20150;-77
2023/01/11 12:10:15;;;;;;;29.92;4.00;;;;;;;11.43;100.00;101245.50;5222975;28;20029;-77
2023/01/11 12:12:59;;;;;;;29.23;4.65;;;;;;;11.29;100.00;101245.09;5231454;28;20362;-77
2023/01/11 12:15:31;;;;;;;23.48;3.58;;;;;;;11.30;100.00;101249.47;5226600;28;20033;-77
2023/01/11 12:18:32;;;;;;;19.77;4.00;;;;;;;11.41;100.00;101245.66;5211343;28;20076;-77
2023/01/11 12:21:21;;;;;;;22.63;3.45;;;;;;;11.30;100.00;101236.06;5207837;28;20033;-77
2023/01/11 12:24:22;;;;;;;25.55;3.95;;;;;;;11.11;100.00;101233.59;5209981;28;20025;-77